Mount Carmel, Louisiana
Current Conditions -  °F | °C
As of 2:26 AM on Thursday 29 Jan 2015 (Local Time) from KAQV Reporting Station
Haze Haze  
Wind Chill: 57°   Ceiling: 300
Heat Index: 57°   Visibility: 2.5mi
Dew Point: 55°   Wind: 5mph
Humidity: 93%   Direction: NA
Pressure: 30.16"   Gusts: NA
Location:  31.4159°N, 93.4621°W
Report Text: KAQV 290826Z AUTO VRB04KT 2 1/2SM BR OVC003 14/13 A3016 RMK AO2 T01390128
Loading
Personal Weather Stations






























Interactive Weather Map New forecast layout! Learn more

10-Day Weather Forecast

Advertisements
Track Severe Weather on mobile